createdAt,value
2023-12-10T00:00:14.310Z,6.40
2023-12-10T00:15:15.846Z,4.20
2023-12-10T00:30:17.467Z,5.27
2023-12-10T00:45:19.051Z,5.43
2023-12-10T01:00:20.628Z,5.97
2023-12-10T01:15:22.203Z,5.77
2023-12-10T01:30:23.784Z,4.07
2023-12-10T01:45:25.351Z,6.10
2023-12-10T02:00:26.971Z,4.23
2023-12-10T02:15:28.579Z,5.87
2023-12-10T02:30:30.135Z,5.97
2023-12-10T02:45:31.731Z,3.60
2023-12-10T03:00:33.389Z,3.23
2023-12-10T03:15:35.433Z,5.00
2023-12-10T03:30:37.083Z,3.63
2023-12-10T03:45:38.821Z,6.70
2023-12-10T04:00:40.441Z,4.20
2023-12-10T04:15:42.048Z,3.30
2023-12-10T04:30:43.619Z,6.43
2023-12-10T04:45:45.162Z,3.87
2023-12-10T05:00:46.771Z,3.83
2023-12-10T05:15:48.335Z,3.77
2023-12-10T05:30:49.901Z,3.40
2023-12-10T05:45:51.472Z,4.87
2023-12-10T06:00:53.077Z,4.27
2023-12-10T06:15:54.637Z,6.03
2023-12-10T06:30:56.249Z,3.50
2023-12-10T06:45:57.823Z,3.87
2023-12-10T07:00:59.569Z,6.77
2023-12-10T07:16:01.219Z,5.50
2023-12-10T07:31:02.782Z,5.80
2023-12-10T07:46:04.419Z,5.90
2023-12-10T08:01:06.069Z,5.07
2023-12-10T08:16:15.072Z,7.13
2023-12-10T08:31:16.581Z,6.10
2023-12-10T08:46:18.117Z,6.23
2023-12-10T09:01:19.847Z,5.70
2023-12-10T09:16:21.471Z,5.17
2023-12-10T09:31:22.972Z,3.93
2023-12-10T09:46:24.501Z,5.37
2023-12-10T10:01:26.175Z,6.10
2023-12-10T10:16:27.810Z,6.20
2023-12-10T10:31:29.325Z,5.00
2023-12-10T10:46:31.037Z,4.67
2023-12-10T11:01:32.726Z,4.57
2023-12-10T11:16:34.247Z,8.37
2023-12-10T11:31:35.759Z,13.87
2023-12-10T11:46:41.815Z,11.53
2023-12-10T12:01:49.380Z,12.77
2023-12-10T12:16:50.927Z,9.27
2023-12-10T12:32:05.640Z,8.17
2023-12-10T12:47:13.914Z,8.57
2023-12-10T13:02:15.430Z,10.27
2023-12-10T13:17:16.937Z,7.97
2023-12-10T13:32:18.637Z,8.97
2023-12-10T13:47:20.192Z,8.37
2023-12-10T14:02:21.707Z,7.23
2023-12-10T14:17:23.274Z,7.00
2023-12-10T14:32:24.791Z,4.70
2023-12-10T14:47:26.407Z,6.70
2023-12-10T15:02:28.043Z,6.47
2023-12-10T15:17:29.917Z,4.63
2023-12-10T15:32:31.642Z,8.27
2023-12-10T15:47:33.403Z,8.73
2023-12-10T16:02:35.010Z,5.43
2023-12-10T16:17:36.563Z,4.57
2023-12-10T16:32:38.128Z,5.03
2023-12-10T16:47:39.756Z,4.83
2023-12-10T17:02:41.391Z,3.60
2023-12-10T17:17:42.928Z,5.00
2023-12-10T17:32:44.507Z,4.07
2023-12-10T17:47:46.111Z,4.67
2023-12-10T18:02:47.694Z,9.80
2023-12-10T18:17:49.353Z,6.60
2023-12-10T18:32:50.967Z,8.43
2023-12-10T18:47:52.577Z,8.10
2023-12-10T19:02:55.328Z,6.67
2023-12-10T19:17:59.506Z,7.60
2023-12-10T19:33:01.379Z,6.63
2023-12-10T19:48:03.088Z,6.50
2023-12-10T20:03:04.677Z,6.13
2023-12-10T20:18:06.282Z,7.47
2023-12-10T20:33:07.855Z,5.67
2023-12-10T20:48:09.552Z,7.93
2023-12-10T21:03:11.202Z,5.13
2023-12-10T21:18:12.865Z,6.17
2023-12-10T21:33:14.509Z,6.53
2023-12-10T21:48:16.144Z,4.50
2023-12-10T22:03:17.735Z,4.77
2023-12-10T22:18:19.348Z,3.87
2023-12-10T22:33:20.927Z,3.13
2023-12-10T22:48:22.520Z,4.27
2023-12-10T23:03:24.145Z,5.80
2023-12-10T23:18:25.685Z,5.33
2023-12-10T23:33:27.525Z,4.37
2023-12-10T23:48:29.193Z,4.67
